Time;durP1;ratioP1;P1;durP2;ratioP2;P2;SDS_P1;SDS_P2;PMS_P1;PMS_P2;Temp;Humidity;BMP_temperature;BMP_pressure;BME280_temperature;BME280_humidity;BME280_pressure;Samples;Min_cycle;Max_cycle;Signal;HPM_P1;HPM_P2
2023/03/13 00:01:22;;;;;;;12.83;8.93;;;9.20;73.80;;;;;;5072375;28;20025;-80
2023/03/13 00:03:47;;;;;;;;;;;9.20;73.80;;;;;;5072835;28;20423;-80
2023/03/13 00:06:13;;;;;;;15.40;9.50;;;9.10;73.90;;;;;;5072609;28;19909;-79
2023/03/13 00:08:39;;;;;;;14.37;9.63;;;9.10;73.90;;;;;;5072625;28;20036;-79
2023/03/13 00:11:08;;;;;;;15.20;9.33;;;9.00;73.80;;;;;;5072658;28;20063;-80
2023/03/13 00:13:34;;;;;;;16.17;9.60;;;9.00;73.70;;;;;;5072395;28;20025;-80
2023/03/13 00:16:00;;;;;;;15.10;9.13;;;8.90;73.80;;;;;;5072695;28;20020;-80
2023/03/13 00:18:26;;;;;;;13.03;9.50;;;8.90;73.80;;;;;;5072306;28;20028;-79
2023/03/13 00:21:00;;;;;;;15.53;9.80;;;8.90;73.90;;;;;;5072029;28;20033;-80
2023/03/13 00:23:26;;;;;;;18.13;9.67;;;8.80;73.90;;;;;;5072293;28;20095;-80
2023/03/13 00:26:00;;;;;;;15.20;9.90;;;8.80;74.00;;;;;;5072393;28;20028;-80
2023/03/13 00:28:31;;;;;;;17.50;9.23;;;8.80;74.10;;;;;;5072325;28;20107;-79
2023/03/13 00:31:08;;;;;;;16.93;9.77;;;8.80;74.00;;;;;;5072485;28;20035;-80
2023/03/13 00:33:34;;;;;;;17.63;8.53;;;8.80;74.20;;;;;;5072026;28;20039;-80
2023/03/13 00:36:02;;;;;;;16.03;9.60;;;8.70;74.20;;;;;;5072479;28;20028;-80
2023/03/13 00:38:28;;;;;;;15.27;9.00;;;8.70;74.30;;;;;;5072268;28;20035;-79
2023/03/13 00:41:06;;;;;;;18.47;9.77;;;8.70;74.10;;;;;;5072122;28;20040;-79
2023/03/13 00:43:33;;;;;;;18.07;9.40;;;8.70;74.30;;;;;;5072138;28;20498;-78
2023/03/13 00:45:59;;;;;;;14.13;8.83;;;8.70;74.10;;;;;;5072144;28;20093;-78
2023/03/13 00:48:25;;;;;;;16.97;9.47;;;8.70;74.10;;;;;;5071935;28;20431;-79
2023/03/13 00:50:51;;;;;;;16.77;9.53;;;8.70;74.20;;;;;;5071936;28;20052;-80
2023/03/13 00:53:17;;;;;;;15.20;9.10;;;8.70;74.20;;;;;;5072921;28;20033;-80
2023/03/13 00:56:18;;;;;;;14.83;9.47;;;8.60;74.50;;;;;;5075707;28;20032;-79
2023/03/13 00:58:45;;;;;;;15.00;9.57;;;8.60;74.30;;;;;;5074977;28;20040;-79
2023/03/13 01:01:14;;;;;;;15.83;9.60;;;8.60;74.40;;;;;;5075596;28;20062;-78
2023/03/13 01:03:41;;;;;;;14.37;9.77;;;8.60;74.50;;;;;;5075399;28;20056;-78
2023/03/13 01:06:10;;;;;;;14.37;9.70;;;8.50;74.50;;;;;;5075395;28;20107;-79
2023/03/13 01:08:36;;;;;;;14.53;9.23;;;8.50;74.50;;;;;;5075570;28;20024;-76
2023/03/13 01:11:08;;;;;;;16.57;9.43;;;8.50;74.50;;;;;;5075398;28;20028;-79
2023/03/13 01:13:34;;;;;;;15.90;9.35;;;8.50;74.60;;;;;;5075447;28;20384;-79
2023/03/13 01:16:09;;;;;;;15.30;9.83;;;8.50;74.80;;;;;;5075099;28;20483;-78
2023/03/13 01:18:36;;;;;;;16.43;9.63;;;8.50;74.80;;;;;;5075202;28;20051;-77
2023/03/13 01:21:03;;;;;;;15.23;9.10;;;8.50;74.80;;;;;;5073650;28;20079;-78
2023/03/13 01:23:29;;;;;;;13.03;9.17;;;8.50;74.90;;;;;;5075118;28;20024;-80
2023/03/13 01:25:55;;;;;;;14.13;9.47;;;8.40;74.90;;;;;;5062089;28;20061;-80
2023/03/13 01:28:22;;;;;;;14.57;9.43;;;8.40;74.80;;;;;;5054642;28;20432;-79
2023/03/13 01:30:48;;;;;;;14.10;9.20;;;8.40;74.90;;;;;;5055021;28;20029;-80
2023/03/13 01:33:14;;;;;;;15.73;8.67;;;8.40;75.00;;;;;;5055015;28;20032;-80
2023/03/13 01:35:40;;;;;;;16.90;10.33;;;8.40;75.30;;;;;;5054953;28;20103;-79
2023/03/13 01:38:05;;;;;;;14.60;9.03;;;8.40;75.40;;;;;;5055149;28;20040;-78
2023/03/13 01:40:41;;;;;;;15.07;8.93;;;8.40;75.30;;;;;;5055045;28;20041;-80
2023/03/13 01:43:28;;;;;;;15.43;9.57;;;8.30;75.20;;;;;;5054649;28;20104;-80
2023/03/13 01:46:06;;;;;;;18.60;9.97;;;8.30;75.50;;;;;;5054369;28;20124;-80
2023/03/13 01:48:53;;;;;;;15.90;8.37;;;8.30;75.50;;;;;;5054691;28;20465;-80
2023/03/13 01:51:24;;;;;;;14.90;9.10;;;8.30;75.60;;;;;;5054666;28;20036;-79
2023/03/13 01:54:01;;;;;;;13.63;8.60;;;8.20;75.50;;;;;;5054680;28;20051;-79
2023/03/13 01:56:35;;;;;;;17.13;9.17;;;8.20;75.40;;;;;;5054639;28;20051;-80
2023/03/13 01:59:01;;;;;;;14.23;9.03;;;8.20;75.40;;;;;;5052066;28;20033;-81
2023/03/13 02:01:28;;;;;;;15.10;9.00;;;8.20;75.40;;;;;;5051739;28;20389;-79
2023/03/13 02:03:56;;;;;;;14.90;8.67;;;8.10;75.70;;;;;;5051614;28;20025;-79
2023/03/13 02:06:22;;;;;;;20.13;8.60;;;8.10;75.60;;;;;;5054065;28;20024;-80
2023/03/13 02:09:01;;;;;;;13.03;7.77;;;8.10;75.60;;;;;;5054240;28;20029;-78
2023/03/13 02:11:48;;;;;;;11.27;7.10;;;8.10;75.00;;;;;;5054294;28;20033;-79
2023/03/13 02:14:17;;;;;;;9.30;6.80;;;8.10;74.80;;;;;;5053734;28;20020;-80
2023/03/13 02:16:47;;;;;;;13.97;7.67;;;8.00;74.80;;;;;;5054003;28;20384;-81
2023/03/13 02:19:30;;;;;;;16.80;7.23;;;8.00;75.40;;;;;;5053468;28;20025;-75
2023/03/13 02:22:06;;;;;;;11.95;7.07;;;7.90;75.00;;;;;;5053825;28;20437;-80
2023/03/13 02:24:51;;;;;;;11.13;6.67;;;7.90;75.10;;;;;;5052776;28;20033;-79
2023/03/13 02:27:17;;;;;;;11.30;6.97;;;7.90;75.10;;;;;;5053922;28;20033;-80
2023/03/13 02:29:43;;;;;;;11.80;7.03;;;7.80;75.20;;;;;;5053680;28;20433;-80
2023/03/13 02:32:09;;;;;;;11.77;7.23;;;7.80;75.20;;;;;;5053868;28;20040;-79
2023/03/13 02:34:38;;;;;;;11.47;7.30;;;7.80;75.30;;;;;;5053522;28;20127;-77
2023/03/13 02:37:05;;;;;;;12.57;7.63;;;7.80;76.20;;;;;;5053363;28;20025;-79
2023/03/13 02:39:32;;;;;;;11.23;7.13;;;7.70;75.70;;;;;;5053331;28;20488;-79
2023/03/13 02:42:00;;;;;;;10.57;7.10;;;7.70;76.00;;;;;;5053570;28;20032;-80
2023/03/13 02:44:26;;;;;;;10.40;6.87;;;7.70;76.20;;;;;;5052870;28;20580;-79
2023/03/13 02:46:52;;;;;;;12.93;6.63;;;7.70;76.30;;;;;;5053247;28;20060;-80
2023/03/13 02:49:28;;;;;;;11.50;6.70;;;7.70;76.30;;;;;;5053442;28;20029;-79
2023/03/13 02:52:18;;;;;;;10.50;6.80;;;7.70;76.20;;;;;;5053439;28;20337;-80
2023/03/13 02:54:46;;;;;;;9.50;6.60;;;7.70;76.40;;;;;;5045249;28;20065;-80
2023/03/13 02:57:12;;;;;;;10.97;6.43;;;7.70;76.60;;;;;;5052233;28;20102;-80
2023/03/13 02:59:38;;;;;;;10.83;6.40;;;7.70;76.50;;;;;;5053176;28;20061;-80
2023/03/13 03:02:04;;;;;;;10.07;6.00;;;7.70;76.60;;;;;;5053275;28;20079;-77
2023/03/13 03:04:29;;;;;;;8.97;5.90;;;7.70;76.90;;;;;;5052996;28;20431;-80
2023/03/13 03:06:56;;;;;;;10.00;5.60;;;7.70;76.80;;;;;;5053420;28;20025;-80
2023/03/13 03:09:22;;;;;;;10.10;5.40;;;7.70;76.70;;;;;;5053163;28;20063;-77
2023/03/13 03:11:48;;;;;;;8.27;5.57;;;7.70;76.60;;;;;;5053060;28;20025;-79
2023/03/13 03:14:15;;;;;;;9.80;5.67;;;7.70;76.30;;;;;;5052635;28;20055;-80
2023/03/13 03:16:41;;;;;;;9.83;5.50;;;7.70;76.30;;;;;;5052158;28;20032;-77
2023/03/13 03:19:07;;;;;;;10.03;5.63;;;7.70;76.20;;;;;;5052686;28;20032;-81
2023/03/13 03:21:34;;;;;;;10.70;6.23;;;7.60;76.20;;;;;;5052754;28;20033;-80
2023/03/13 03:23:59;;;;;;;9.97;6.43;;;7.70;76.50;;;;;;5053062;28;20032;-79
2023/03/13 03:26:26;;;;;;;9.33;5.77;;;7.70;76.50;;;;;;5052822;28;20079;-79
2023/03/13 03:28:52;;;;;;;8.40;5.60;;;7.70;76.40;;;;;;5052886;28;20021;-79
2023/03/13 03:31:17;;;;;;;11.37;6.10;;;7.70;76.50;;;;;;5052921;28;20036;-79
2023/03/13 03:33:44;;;;;;;8.53;4.93;;;7.70;76.50;;;;;;5052733;28;20381;-79
2023/03/13 03:36:13;;;;;;;9.37;4.83;;;7.70;76.40;;;;;;5053080;28;20496;-79
2023/03/13 03:38:39;;;;;;;9.87;4.90;;;7.70;76.40;;;;;;5052745;28;20090;-78
2023/03/13 03:41:06;;;;;;;9.57;5.40;;;7.70;77.30;;;;;;5052536;28;20040;-80
2023/03/13 03:43:34;;;;;;;9.23;5.97;;;7.70;76.70;;;;;;5052597;28;20155;-80
2023/03/13 03:45:59;;;;;;;8.97;5.43;;;7.70;76.50;;;;;;5052435;28;20053;-79
2023/03/13 03:48:25;;;;;;;8.53;5.83;;;7.70;76.60;;;;;;5052862;28;20028;-80
2023/03/13 03:50:51;;;;;;;11.43;5.67;;;7.70;76.60;;;;;;5052750;28;20385;-79
2023/03/13 03:53:16;;;;;;;12.90;6.20;;;7.70;76.50;;;;;;5052635;28;20392;-79
2023/03/13 03:55:43;;;;;;;17.33;6.50;;;7.70;76.40;;;;;;5052654;28;20025;-80
2023/03/13 03:58:08;;;;;;;9.37;5.80;;;7.70;76.30;;;;;;5052600;28;20037;-81
2023/03/13 04:00:34;;;;;;;12.80;6.20;;;7.70;76.40;;;;;;5052433;28;20480;-73
2023/03/13 04:03:00;;;;;;;10.87;5.90;;;7.70;76.40;;;;;;5052532;28;20672;-80
2023/03/13 04:05:25;;;;;;;12.23;5.07;;;7.60;76.60;;;;;;5052645;28;20385;-80
2023/03/13 04:07:51;;;;;;;9.77;5.13;;;7.60;76.60;;;;;;5052559;28;20074;-80
2023/03/13 04:10:17;;;;;;;10.03;5.53;;;7.60;77.20;;;;;;5052589;28;20025;-80
2023/03/13 04:12:42;;;;;;;14.77;6.20;;;7.60;76.70;;;;;;5052429;28;20104;-79
2023/03/13 04:15:09;;;;;;;12.33;5.67;;;7.60;76.70;;;;;;5052215;28;20441;-78
2023/03/13 04:17:35;;;;;;;15.13;5.90;;;7.60;76.60;;;;;;5052548;28;20044;-79
2023/03/13 04:20:00;;;;;;;15.70;5.67;;;7.60;76.50;;;;;;5052258;28;20072;-79
2023/03/13 04:22:26;;;;;;;32.27;6.23;;;7.60;77.30;;;;;;5052457;28;20025;-80
2023/03/13 04:24:52;;;;;;;21.97;6.73;;;7.60;76.70;;;;;;5052376;28;20025;-80
2023/03/13 04:27:18;;;;;;;11.93;5.53;;;7.60;76.50;;;;;;5052468;28;20491;-80
2023/03/13 04:29:44;;;;;;;15.47;5.40;;;7.50;76.60;;;;;;5055531;28;20082;-80
2023/03/13 04:32:10;;;;;;;19.90;5.53;;;7.50;76.80;;;;;;5056249;28;20052;-81
2023/03/13 04:34:35;;;;;;;14.10;4.83;;;7.50;76.70;;;;;;5055914;28;20036;-79
2023/03/13 04:37:01;;;;;;;11.90;5.07;;;7.40;76.20;;;;;;5055978;28;20373;-80
2023/03/13 04:39:27;;;;;;;9.23;4.47;;;7.40;76.10;;;;;;5055912;28;20139;-78
2023/03/13 04:41:54;;;;;;;7.43;4.50;;;7.30;76.00;;;;;;5056025;28;20504;-80
2023/03/13 04:44:48;;;;;;;;;;;;;;;;;;;;;
2023/03/13 04:47:09;;;;;;;6.77;4.60;;;7.30;76.20;;;;;;5053423;28;20467;-78
2023/03/13 04:49:35;;;;;;;9.33;4.60;;;7.20;76.30;;;;;;5054492;28;20069;-80
2023/03/13 04:52:01;;;;;;;7.53;4.47;;;7.20;76.50;;;;;;5055819;28;20025;-81
2023/03/13 04:54:26;;;;;;;9.57;5.10;;;7.20;76.80;;;;;;5055820;28;20055;-79
2023/03/13 04:56:52;;;;;;;7.83;4.93;;;7.20;77.00;;;;;;5055516;28;20418;-80
2023/03/13 04:59:17;;;;;;;9.60;4.67;;;7.10;77.10;;;;;;5055451;28;20067;-80
2023/03/13 05:01:43;;;;;;;7.43;3.90;;;7.10;77.20;;;;;;5055674;28;20125;-80
2023/03/13 05:04:10;;;;;;;7.03;4.00;;;7.10;77.20;;;;;;5055318;28;20101;-80
2023/03/13 05:06:36;;;;;;;9.97;4.63;;;7.10;77.40;;;;;;5055405;28;20043;-79
2023/03/13 05:09:02;;;;;;;6.87;4.47;;;7.10;77.50;;;;;;5055205;28;20100;-76
2023/03/13 05:11:28;;;;;;;7.50;4.00;;;7.00;77.40;;;;;;5055194;28;20036;-79
2023/03/13 05:13:54;;;;;;;12.00;4.63;;;7.10;77.60;;;;;;5055031;28;20033;-79
2023/03/13 05:16:20;;;;;;;9.07;4.20;;;7.10;77.50;;;;;;5055218;28;20025;-80
2023/03/13 05:18:46;;;;;;;7.03;4.33;;;7.00;77.50;;;;;;5055309;28;20036;-80
2023/03/13 05:21:11;;;;;;;7.63;4.57;;;7.00;77.60;;;;;;5053852;28;20373;-79
2023/03/13 05:23:37;;;;;;;8.00;4.70;;;7.10;77.80;;;;;;5054868;28;20524;-80
2023/03/13 05:26:03;;;;;;;12.70;4.60;;;7.10;77.80;;;;;;5055024;28;20071;-79
2023/03/13 05:28:29;;;;;;;73.00;6.70;;;7.10;78.60;;;;;;5055203;28;20036;-80
2023/03/13 05:30:55;;;;;;;25.13;5.30;;;7.10;78.20;;;;;;5055130;28;20381;-80
2023/03/13 05:33:20;;;;;;;30.03;5.50;;;7.10;78.10;;;;;;5053752;28;20040;-80
2023/03/13 05:35:46;;;;;;;21.37;5.20;;;7.10;78.20;;;;;;5054977;28;20033;-80
2023/03/13 05:38:12;;;;;;;26.77;6.47;;;7.10;78.20;;;;;;5054896;28;20028;-80
2023/03/13 05:40:38;;;;;;;18.87;10.03;;;7.10;78.20;;;;;;5054425;28;20405;-80
2023/03/13 05:43:03;;;;;;;33.47;16.73;;;7.10;78.40;;;;;;5054595;28;20025;-80
2023/03/13 05:45:29;;;;;;;88.47;24.67;;;7.10;78.40;;;;;;5054257;28;20063;-80
2023/03/13 05:47:55;;;;;;;68.90;19.40;;;7.10;78.40;;;;;;5054533;28;20461;-80
2023/03/13 05:50:20;;;;;;;44.80;17.23;;;7.10;78.20;;;;;;5054572;28;20476;-78
2023/03/13 05:52:46;;;;;;;33.67;17.23;;;7.10;78.10;;;;;;5054542;28;20392;-80
2023/03/13 05:55:12;;;;;;;38.27;16.27;;;7.10;78.10;;;;;;5054418;28;20120;-80
2023/03/13 05:57:38;;;;;;;28.67;15.30;;;7.10;78.00;;;;;;5054624;28;20033;-80
2023/03/13 06:00:04;;;;;;;29.97;14.87;;;7.10;78.10;;;;;;5054582;28;20393;-80
2023/03/13 06:02:30;;;;;;;27.20;14.27;;;7.10;78.20;;;;;;5054418;28;20063;-78
2023/03/13 06:04:56;;;;;;;67.50;15.37;;;7.20;78.20;;;;;;5066594;28;20028;-78
2023/03/13 06:07:21;;;;;;;34.10;11.33;;;7.20;78.20;;;;;;5073993;28;20032;-77
2023/03/13 06:09:47;;;;;;;18.83;9.07;;;7.20;78.40;;;;;;5073775;28;20035;-80
2023/03/13 06:12:13;;;;;;;30.60;9.83;;;7.20;78.40;;;;;;5073866;28;20024;-77
2023/03/13 06:14:38;;;;;;;22.90;9.00;;;7.20;78.40;;;;;;5074001;28;20040;-77
2023/03/13 06:17:05;;;;;;;18.33;8.50;;;7.20;78.50;;;;;;5074072;28;20095;-78
2023/03/13 06:19:30;;;;;;;17.27;8.70;;;7.20;78.80;;;;;;5074023;28;20455;-78
2023/03/13 06:21:56;;;;;;;26.97;8.67;;;7.20;78.90;;;;;;5073998;28;20091;-77
2023/03/13 06:24:22;;;;;;;21.67;8.33;;;7.20;79.00;;;;;;5073733;28;20456;-74
2023/03/13 06:26:49;;;;;;;32.60;8.77;;;7.20;79.10;;;;;;5073878;28;20047;-76
2023/03/13 06:29:15;;;;;;;38.50;8.90;;;7.20;79.10;;;;;;5081078;28;20369;-78
2023/03/13 06:31:41;;;;;;;32.67;8.13;;;7.30;79.20;;;;;;5083334;28;20052;-78
2023/03/13 06:34:09;;;;;;;23.23;7.30;;;7.30;79.20;;;;;;5073905;28;20051;-76
2023/03/13 06:36:35;;;;;;;25.53;6.63;;;7.30;79.40;;;;;;5073749;28;20024;-76
2023/03/13 06:39:01;;;;;;;17.00;6.53;;;7.30;79.50;;;;;;5073733;28;20028;-77
2023/03/13 06:41:26;;;;;;;22.67;6.67;;;7.30;79.70;;;;;;5073605;28;20032;-75
2023/03/13 06:43:52;;;;;;;37.73;7.00;;;7.40;80.50;;;;;;5073740;28;20155;-76
2023/03/13 06:46:21;;;;;;;12.30;5.60;;;7.40;80.40;;;;;;5073558;28;20115;-78
2023/03/13 06:48:47;;;;;;;21.17;5.20;;;7.40;80.20;;;;;;5073374;28;20027;-79
2023/03/13 06:51:14;;;;;;;16.20;5.07;;;7.50;79.80;;;;;;5072590;28;20020;-74
2023/03/13 06:53:40;;;;;;;21.03;5.20;;;7.50;79.60;;;;;;5072481;28;20023;-79
2023/03/13 06:56:07;;;;;;;10.23;4.73;;;7.50;79.10;;;;;;5073135;28;20025;-79
2023/03/13 06:58:33;;;;;;;7.93;4.40;;;7.50;79.00;;;;;;5073105;28;20107;-77
2023/03/13 07:01:04;;;;;;;13.37;5.60;;;7.50;79.50;;;;;;5073287;28;20492;-78
2023/03/13 07:03:30;;;;;;;17.83;6.30;;;7.60;79.60;;;;;;5072883;28;20024;-79
2023/03/13 07:05:56;;;;;;;41.97;6.83;;;7.60;79.50;;;;;;5071401;28;20534;-78
2023/03/13 07:08:24;;;;;;;23.73;5.50;;;7.60;79.50;;;;;;5072752;28;20773;-79
2023/03/13 07:10:51;;;;;;;15.00;5.13;;;7.70;79.60;;;;;;5072921;28;20107;-79
2023/03/13 07:13:18;;;;;;;22.60;5.30;;;7.70;79.90;;;;;;5072565;28;20052;-78
2023/03/13 07:15:44;;;;;;;14.07;5.47;;;7.70;79.90;;;;;;5072616;28;20038;-79
2023/03/13 07:18:10;;;;;;;24.17;6.33;;;7.70;80.00;;;;;;5072512;28;20472;-78
2023/03/13 07:20:35;;;;;;;15.03;5.90;;;7.70;80.20;;;;;;5072796;28;20033;-77
2023/03/13 07:23:01;;;;;;;21.97;5.90;;;7.80;80.40;;;;;;5072687;28;20433;-78
2023/03/13 07:25:27;;;;;;;24.73;6.10;;;7.80;80.60;;;;;;5072389;28;20524;-79
2023/03/13 07:27:52;;;;;;;17.20;4.97;;;7.80;80.60;;;;;;5072268;28;20016;-79
2023/03/13 07:30:19;;;;;;;14.13;5.37;;;7.90;81.00;;;;;;5072282;28;20029;-79
2023/03/13 07:32:44;;;;;;;19.47;5.80;;;7.90;81.00;;;;;;5072586;28;20119;-79
2023/03/13 07:35:10;;;;;;;17.23;5.63;;;7.90;81.10;;;;;;5072595;28;20471;-79
2023/03/13 07:37:36;;;;;;;20.10;5.97;;;7.90;81.10;;;;;;5072397;28;20031;-78
2023/03/13 07:40:03;;;;;;;30.10;6.50;;;8.00;81.00;;;;;;5072319;28;20043;-79
2023/03/13 07:42:29;;;;;;;20.57;6.73;;;8.00;81.20;;;;;;5072671;28;20063;-77
2023/03/13 07:44:54;;;;;;;15.13;6.33;;;8.00;81.40;;;;;;5072209;28;20024;-77
2023/03/13 07:47:20;;;;;;;23.63;7.40;;;8.00;81.80;;;;;;5072326;28;20049;-77
2023/03/13 07:49:45;;;;;;;19.07;7.00;;;8.10;81.60;;;;;;5071354;28;20380;-78
2023/03/13 07:52:11;;;;;;;12.60;6.70;;;8.10;81.70;;;;;;5072491;28;20039;-80
2023/03/13 07:54:37;;;;;;;14.27;6.97;;;8.20;81.70;;;;;;5072439;28;20025;-80
2023/03/13 07:57:03;;;;;;;15.90;6.87;;;8.20;81.60;;;;;;5072442;28;20484;-78
2023/03/13 07:59:29;;;;;;;14.30;6.97;;;8.30;81.40;;;;;;5072167;28;20369;-77
2023/03/13 08:01:55;;;;;;;15.30;7.20;;;8.30;81.50;;;;;;5072496;28;20028;-76
2023/03/13 08:04:20;;;;;;;15.57;6.57;;;8.40;81.60;;;;;;5076506;28;20547;-78
2023/03/13 08:06:46;;;;;;;11.60;5.67;;;8.40;81.30;;;;;;5076580;28;20060;-78
2023/03/13 08:09:12;;;;;;;11.77;5.60;;;8.50;81.90;;;;;;5076255;28;20153;-78
2023/03/13 08:11:43;;;;;;;18.60;5.40;;;8.50;81.10;;;;;;5076567;28;20035;-78
2023/03/13 08:14:09;;;;;;;20.43;4.63;;;8.60;81.10;;;;;;5076426;28;20486;-78
2023/03/13 08:16:35;;;;;;;10.67;4.40;;;8.70;80.80;;;;;;5076329;28;20046;-79
2023/03/13 08:19:04;;;;;;;10.63;4.93;;;8.70;80.30;;;;;;5075484;28;20032;-79
2023/03/13 08:21:32;;;;;;;10.17;5.30;;;8.80;79.50;;;;;;5075757;28;20044;-78
2023/03/13 08:24:01;;;;;;;7.97;4.20;;;8.80;79.00;;;;;;5075848;28;20059;-75
2023/03/13 08:26:28;;;;;;;10.87;4.80;;;8.80;78.90;;;;;;5076156;28;20480;-78
2023/03/13 08:28:57;;;;;;;13.50;4.50;;;8.90;79.10;;;;;;5075759;28;20024;-79
2023/03/13 08:31:25;;;;;;;10.63;4.83;;;8.90;78.80;;;;;;5075787;28;20460;-79
2023/03/13 08:33:51;;;;;;;13.93;5.00;;;9.00;79.00;;;;;;5075131;28;20387;-79
2023/03/13 08:36:23;;;;;;;18.10;4.53;;;9.00;79.20;;;;;;5075454;28;20392;-77
2023/03/13 08:38:51;;;;;;;12.38;5.07;;;9.10;79.40;;;;;;5075905;28;20387;-77
2023/03/13 08:41:19;;;;;;;16.27;5.10;;;9.20;79.40;;;;;;5075765;28;20036;-77
2023/03/13 08:43:45;;;;;;;17.20;5.10;;;9.30;79.30;;;;;;5075954;28;20028;-66
2023/03/13 08:46:11;;;;;;;18.93;5.87;;;9.40;79.20;;;;;;5075606;28;20135;-67
2023/03/13 08:48:36;;;;;;;11.57;6.23;;;9.50;79.00;;;;;;5076042;28;20095;-67
2023/03/13 08:51:12;;;;;;;17.87;5.27;;;9.50;78.70;;;;;;5075950;28;20032;-67
2023/03/13 08:53:39;;;;;;;8.93;4.90;;;9.60;78.50;;;;;;5075783;28;20055;-67
2023/03/13 08:56:08;;;;;;;10.77;4.73;;;9.70;77.70;;;;;;5077290;28;20028;-68
2023/03/13 08:58:34;;;;;;;10.47;4.47;;;9.70;77.00;;;;;;5077238;28;20073;-66
2023/03/13 09:01:08;;;;;;;9.27;4.07;;;9.80;76.80;;;;;;5075143;28;20037;-67
2023/03/13 09:03:34;;;;;;;9.03;4.13;;;9.90;76.40;;;;;;5075509;28;20025;-66
2023/03/13 09:06:01;;;;;;;8.37;3.83;;;10.00;76.00;;;;;;5075352;28;20490;-67
2023/03/13 09:08:28;;;;;;;11.27;4.07;;;10.10;75.90;;;;;;5075663;28;20031;-66
2023/03/13 09:11:18;;;;;;;9.43;4.10;;;10.10;75.40;;;;;;5075516;28;20032;-67
2023/03/13 09:13:46;;;;;;;9.40;4.23;;;10.20;74.80;;;;;;5065061;28;20036;-67
2023/03/13 09:16:15;;;;;;;7.93;4.43;;;10.20;75.00;;;;;;5075387;28;20107;-66
2023/03/13 09:18:42;;;;;;;10.63;4.00;;;10.30;74.80;;;;;;5074450;28;20024;-67
2023/03/13 09:21:14;;;;;;;8.63;4.00;;;10.30;74.70;;;;;;5075561;28;20462;-67
2023/03/13 09:23:39;;;;;;;15.57;4.50;;;10.40;74.60;;;;;;5075396;28;20368;-67
2023/03/13 09:26:05;;;;;;;17.80;4.33;;;10.40;74.30;;;;;;5075544;28;20025;-67
2023/03/13 09:28:32;;;;;;;8.93;3.97;;;10.50;74.30;;;;;;5075086;28;20033;-67
2023/03/13 09:31:10;;;;;;;8.93;4.47;;;10.60;74.40;;;;;;5075190;28;20074;-67
2023/03/13 09:33:35;;;;;;;9.53;4.43;;;10.70;74.30;;;;;;5075054;28;20443;-68
2023/03/13 09:36:01;;;;;;;7.07;4.03;;;10.80;74.10;;;;;;5074989;28;20028;-67
2023/03/13 09:38:27;;;;;;;9.43;4.43;;;10.90;73.80;;;;;;5074944;28;20070;-67
2023/03/13 09:40:54;;;;;;;7.38;4.13;;;11.10;73.40;;;;;;5074787;28;20051;-66
2023/03/13 09:43:28;;;;;;;13.38;3.63;;;11.20;72.80;;;;;;5075115;28;20025;-66
2023/03/13 09:46:00;;;;;;;8.40;3.65;;;11.30;72.60;;;;;;5074782;28;20074;-67
2023/03/13 09:48:35;;;;;;;14.27;3.78;;;11.50;72.20;;;;;;5074806;28;20376;-67
2023/03/13 09:51:19;;;;;;;6.57;3.40;;;11.60;77.70;;;;;;5074931;28;20096;-66
2023/03/13 09:53:50;;;;;;;5.70;2.50;;;11.80;73.50;;;;;;5074672;28;20090;-67
2023/03/13 09:56:22;;;;;;;7.38;1.70;;;11.80;69.40;;;;;;5074714;28;20025;-67
2023/03/13 09:59:04;;;;;;;7.57;2.10;;;12.10;72.80;;;;;;5074567;28;20029;-66
2023/03/13 10:01:53;;;;;;;6.43;2.00;;;12.00;65.20;;;;;;5074395;28;20028;-67
2023/03/13 10:04:43;;;;;;;6.15;2.13;;;12.10;64.20;;;;;;5074585;28;20051;-67
2023/03/13 10:07:10;;;;;;;2.78;1.58;;;;;;;;;;5074518;28;20083;-67
2023/03/13 10:09:36;;;;;;;9.95;1.77;;;12.40;67.70;;;;;;5074485;28;20031;-68
2023/03/13 10:12:23;;;;;;;3.63;1.60;;;12.40;62.80;;;;;;5074118;28;20431;-65
2023/03/13 10:14:51;;;;;;;5.07;1.50;;;12.50;62.40;;;;;;5074338;28;20039;-66
2023/03/13 10:17:25;;;;;;;2.00;1.13;;;12.50;61.20;;;;;;5074331;28;20094;-66
2023/03/13 10:19:59;;;;;;;4.05;1.60;;;12.60;60.80;;;;;;5074085;28;20036;-67
2023/03/13 10:22:28;;;;;;;3.33;1.60;;;12.60;59.90;;;;;;5073879;28;20476;-67
2023/03/13 10:25:08;;;;;;;5.35;1.58;;;12.60;60.00;;;;;;5073729;28;20025;-67
2023/03/13 10:27:47;;;;;;;7.55;1.40;;;12.60;59.90;;;;;;5073762;28;20059;-66
2023/03/13 10:30:28;;;;;;;3.13;1.40;;;12.60;60.10;;;;;;5072599;28;20034;-67
2023/03/13 10:33:16;;;;;;;3.85;1.60;;;12.70;60.50;;;;;;5073188;28;20115;-66
2023/03/13 10:35:43;;;;;;;4.40;1.60;;;12.70;59.50;;;;;;5073052;28;20038;-67
2023/03/13 10:38:14;;;;;;;7.25;1.83;;;12.80;58.90;;;;;;5073396;28;20415;-68
2023/03/13 10:40:41;;;;;;;5.07;1.77;;;12.80;58.20;;;;;;5073039;28;20044;-67
2023/03/13 10:43:17;;;;;;;3.80;1.40;;;12.90;58.40;;;;;;5073257;28;20036;-67
2023/03/13 10:45:43;;;;;;;3.67;1.55;;;13.00;62.00;;;;;;5072426;28;20036;-69
2023/03/13 10:48:20;;;;;;;4.47;1.77;;;13.00;59.60;;;;;;5073087;28;20571;-67
2023/03/13 10:50:49;;;;;;;3.45;1.70;;;13.10;62.30;;;;;;5073269;28;20495;-67
2023/03/13 10:53:29;;;;;;;3.08;1.63;;;13.00;58.50;;;;;;5072730;28;20028;-67
2023/03/13 10:56:13;;;;;;;4.32;1.80;;;13.10;59.10;;;;;;5073014;28;20026;-68
2023/03/13 10:58:50;;;;;;;3.33;2.00;;;13.10;59.60;;;;;;5057243;28;20040;-66
2023/03/13 11:01:22;;;;;;;4.53;1.88;;;13.20;59.10;;;;;;5052954;28;20542;-67
2023/03/13 11:03:48;;;;;;;3.95;1.85;;;13.20;58.60;;;;;;5053154;28;20025;-67
2023/03/13 11:06:31;;;;;;;3.10;1.45;;;13.30;59.20;;;;;;5053160;28;20199;-67
2023/03/13 11:09:12;;;;;;;2.70;1.65;;;13.30;59.70;;;;;;5053347;28;20539;-66
2023/03/13 11:11:48;;;;;;;5.47;1.77;;;13.40;59.30;;;;;;5053421;28;20021;-68
2023/03/13 11:14:19;;;;;;;6.40;1.80;;;13.60;58.50;;;;;;5053226;28;20469;-67
2023/03/13 11:16:49;;;;;;;7.38;2.03;;;13.70;60.30;;;;;;5053350;28;20109;-67
2023/03/13 11:19:30;;;;;;;8.48;2.17;;;13.80;59.10;;;;;;5053079;28;20439;-67
2023/03/13 11:22:12;;;;;;;5.85;2.10;;;13.90;59.90;;;;;;5053299;28;20052;-67
2023/03/13 11:24:54;;;;;;;4.95;2.15;;;;;;;;;;5057181;28;20025;-67
2023/03/13 11:27:34;;;;;;;3.97;1.67;;;14.20;92.50;;;;;;5053324;28;20035;-67
2023/03/13 11:30:21;;;;;;;6.82;2.65;;;14.20;58.90;;;;;;5052765;28;20024;-67
2023/03/13 11:32:51;;;;;;;8.73;1.70;;;14.30;59.00;;;;;;5052602;28;20028;-67
2023/03/13 11:35:42;;;;;;;7.90;1.75;;;14.40;59.10;;;;;;5052702;28;20029;-68
2023/03/13 11:38:36;;;;;;;7.75;1.60;;;14.50;58.90;;;;;;5052368;28;20541;-78
2023/03/13 11:41:12;;;;;;;3.30;1.40;;;14.50;58.40;;;;;;5052544;28;20041;-77
2023/03/13 11:44:00;;;;;;;6.88;1.92;;;14.60;57.50;;;;;;5052892;28;20044;-79
2023/03/13 11:46:38;;;;;;;6.60;1.60;;;;;;;;;;5052639;28;20124;-77
2023/03/13 11:49:11;;;;;;;3.80;1.30;;;14.80;55.70;;;;;;5052649;28;20082;-76
2023/03/13 11:51:50;;;;;;;4.88;1.42;;;14.80;56.00;;;;;;5052803;28;20025;-75
2023/03/13 11:54:46;;;;;;;8.85;1.73;;;14.90;56.80;;;;;;5052721;28;20137;-77
2023/03/13 11:57:53;;;;;;;3.53;1.50;;;15.00;55.70;;;;;;5052607;28;20026;-78
2023/03/13 12:00:36;;;;;;;10.18;1.40;;;15.10;55.20;;;;;;5050309;28;20077;-78
2023/03/13 12:03:15;;;;;;;;;;;15.20;54.70;;;;;;5052792;28;20033;-78
2023/03/13 12:05:46;;;;;;;7.70;1.73;;;15.20;54.30;;;;;;5052426;28;19908;-78
2023/03/13 12:08:17;;;;;;;2.10;1.03;;;15.30;53.70;;;;;;5052118;28;20393;-77
2023/03/13 12:10:57;;;;;;;3.70;1.50;;;15.40;53.20;;;;;;5052266;28;20044;-78
2023/03/13 12:13:30;;;;;;;5.18;1.77;;;15.40;54.20;;;;;;5052319;28;20543;-77
2023/03/13 12:16:01;;;;;;;6.10;1.73;;;15.60;53.80;;;;;;5052154;28;20025;-75
2023/03/13 12:18:39;;;;;;;6.07;1.33;;;15.70;53.30;;;;;;5052050;28;20064;-78
2023/03/13 12:21:26;;;;;;;4.15;1.40;;;15.90;66.60;;;;;;5052040;28;20041;-78
2023/03/13 12:24:21;;;;;;;3.40;1.17;;;16.00;66.80;;;;;;5052552;28;20071;-77
2023/03/13 12:26:53;;;;;;;3.75;1.30;;;16.00;67.40;;;;;;5046285;28;20048;-79
2023/03/13 12:29:18;;;;;;;4.53;1.75;;;16.00;66.20;;;;;;5051958;28;20274;-78
2023/03/13 12:31:53;;;;;;;2.95;1.10;;;16.10;66.00;;;;;;5051444;28;20032;-74
2023/03/13 12:34:37;;;;;;;5.53;1.17;;;16.10;66.00;;;;;;5051649;28;20483;-78
2023/03/13 12:37:29;;;;;;;2.10;1.00;;;16.10;67.50;;;;;;5051958;28;20436;-79
2023/03/13 12:40:06;;;;;;;5.65;1.20;;;16.10;66.00;;;;;;5050911;28;20120;-83
2023/03/13 12:42:43;;;;;;;6.70;1.98;;;16.20;66.20;;;;;;5052124;28;20021;-76
2023/03/13 12:45:18;;;;;;;5.07;1.13;;;16.20;66.50;;;;;;5052584;28;20358;-78
2023/03/13 12:48:27;;;;;;;7.13;1.38;;;16.30;63.90;;;;;;5052615;28;20509;-77
2023/03/13 12:51:20;;;;;;;2.63;1.15;;;16.20;62.90;;;;;;5031714;28;20087;-68
2023/03/13 12:54:02;;;;;;;;;;;16.20;63.10;;;;;;5056543;28;20029;-82
2023/03/13 12:56:33;;;;;;;6.30;1.50;;;16.20;62.40;;;;;;5055762;28;19909;-72
2023/03/13 12:59:05;;;;;;;5.43;1.48;;;16.20;62.10;;;;;;5056769;28;20025;-79
2023/03/13 13:01:33;;;;;;;2.83;0.98;;;16.20;61.70;;;;;;5055678;28;20083;-68
2023/03/13 13:04:18;;;;;;;8.60;1.55;;;16.30;62.30;;;;;;5055585;28;20029;-70
2023/03/13 13:06:54;;;;;;;4.55;1.10;;;16.40;64.20;;;;;;5058289;28;20029;-85